createdAt,value
2018-11-04T00:02:49.840Z,8.79
2018-11-04T00:07:52.327Z,8.75
2018-11-04T00:12:54.790Z,8.70
2018-11-04T00:17:57.398Z,8.51
2018-11-04T00:22:59.905Z,8.60
2018-11-04T00:28:02.388Z,8.57
2018-11-04T00:33:05.091Z,8.54
2018-11-04T00:38:07.671Z,8.60
2018-11-04T00:43:10.102Z,8.49
2018-11-04T00:48:12.920Z,8.54
2018-11-04T00:53:15.287Z,8.52
2018-11-04T00:58:17.720Z,8.43
2018-11-04T01:03:20.127Z,8.45
2018-11-04T01:08:22.996Z,8.43
2018-11-04T01:13:25.352Z,8.46
2018-11-04T01:18:27.815Z,8.43
2018-11-04T01:23:30.395Z,8.48
2018-11-04T01:28:32.794Z,8.59
2018-11-04T01:33:35.425Z,8.55
2018-11-04T01:38:37.855Z,8.54
2018-11-04T01:43:40.303Z,8.51
2018-11-04T01:48:42.757Z,8.52
2018-11-04T01:53:45.410Z,8.57
2018-11-04T01:58:48.172Z,8.58
2018-11-04T02:03:50.568Z,8.57
2018-11-04T02:08:52.917Z,8.50
2018-11-04T02:13:55.605Z,8.54
2018-11-04T02:18:58.133Z,8.54
2018-11-04T02:24:00.616Z,8.50
2018-11-04T02:29:03.123Z,8.53
2018-11-04T02:34:05.571Z,8.53
2018-11-04T02:39:08.288Z,8.58
2018-11-04T02:44:10.713Z,8.66
2018-11-04T02:49:13.091Z,8.62
2018-11-04T02:54:15.593Z,8.69
2018-11-04T02:59:18.068Z,8.62
2018-11-04T03:04:21.370Z,8.62
2018-11-04T03:09:23.934Z,8.73
2018-11-04T03:15:29.669Z,8.66
2018-11-04T03:20:32.156Z,8.71
2018-11-04T03:25:35.025Z,8.68
2018-11-04T03:30:37.768Z,8.71
2018-11-04T03:35:40.200Z,8.71
2018-11-04T03:40:42.694Z,8.68
2018-11-04T03:45:45.107Z,8.78
2018-11-04T03:50:47.493Z,8.80
2018-11-04T03:55:49.958Z,8.78
2018-11-04T04:00:52.380Z,8.79
2018-11-04T04:05:54.872Z,8.77
2018-11-04T04:10:57.390Z,8.81
2018-11-04T04:15:59.836Z,8.77
2018-11-04T04:21:08.432Z,8.86
2018-11-04T04:26:11.636Z,8.87
2018-11-04T04:31:14.095Z,8.88
2018-11-04T04:36:16.523Z,8.90
2018-11-04T04:41:18.955Z,8.91
2018-11-04T04:46:21.293Z,8.90
2018-11-04T04:51:23.737Z,8.92
2018-11-04T04:56:26.096Z,8.90
2018-11-04T05:01:28.571Z,8.94
2018-11-04T05:06:30.963Z,8.97
2018-11-04T05:11:33.375Z,8.94
2018-11-04T05:16:35.763Z,8.98
2018-11-04T05:21:38.255Z,8.96
2018-11-04T05:26:40.749Z,8.93
2018-11-04T05:31:43.172Z,8.95
2018-11-04T05:36:45.575Z,8.97
2018-11-04T05:41:48.027Z,9.04
2018-11-04T05:46:50.407Z,9.00
2018-11-04T05:51:52.827Z,9.03
2018-11-04T05:56:55.217Z,9.01
2018-11-04T06:01:57.553Z,9.02
2018-11-04T06:06:59.935Z,8.98
2018-11-04T06:12:02.499Z,8.97
2018-11-04T06:17:04.903Z,9.02
2018-11-04T06:22:08.299Z,9.01
2018-11-04T06:27:10.660Z,8.97
2018-11-04T06:32:13.152Z,8.98
2018-11-04T06:37:15.559Z,8.98
2018-11-04T06:42:18.140Z,8.99
2018-11-04T06:47:20.543Z,9.00
2018-11-04T06:52:23.869Z,9.06
2018-11-04T06:57:26.357Z,9.04
2018-11-04T07:02:28.843Z,9.10
2018-11-04T07:07:31.241Z,9.08
2018-11-04T07:12:33.695Z,9.14
2018-11-04T07:17:36.072Z,9.15
2018-11-04T07:22:38.530Z,9.22
2018-11-04T07:27:41.075Z,9.21
2018-11-04T07:32:46.259Z,9.22
2018-11-04T07:37:48.641Z,9.27
2018-11-04T07:42:51.086Z,9.32
2018-11-04T07:47:53.488Z,9.37
2018-11-04T07:52:55.873Z,9.41
2018-11-04T07:57:58.276Z,9.45
2018-11-04T08:03:00.677Z,9.45
2018-11-04T08:08:03.028Z,9.46
2018-11-04T08:13:06.080Z,9.49
2018-11-04T08:18:08.893Z,9.49
2018-11-04T08:23:11.342Z,9.48
2018-11-04T08:28:13.764Z,9.48
2018-11-04T08:33:16.195Z,9.47
2018-11-04T08:38:18.687Z,9.52
2018-11-04T08:43:21.073Z,9.54
2018-11-04T08:48:23.596Z,9.57
2018-11-04T08:53:26.002Z,9.56
2018-11-04T08:58:28.538Z,9.59
2018-11-04T09:03:30.936Z,9.61
2018-11-04T09:08:33.535Z,9.64
2018-11-04T09:13:36.778Z,9.68
2018-11-04T09:18:39.444Z,9.73
2018-11-04T09:23:42.552Z,9.75
2018-11-04T09:28:45.190Z,9.79
2018-11-04T09:33:48.730Z,9.81
2018-11-04T09:38:51.498Z,9.91
2018-11-04T09:43:53.918Z,9.91
2018-11-04T09:48:56.487Z,10.02
2018-11-04T09:53:59.150Z,10.05
2018-11-04T09:59:01.577Z,10.04
2018-11-04T10:04:04.467Z,10.09
2018-11-04T10:09:08.229Z,10.11
2018-11-04T10:14:11.016Z,10.13
2018-11-04T10:19:15.356Z,10.19
2018-11-04T10:24:17.644Z,10.22
2018-11-04T10:29:20.219Z,10.26
2018-11-04T10:34:22.716Z,10.28
2018-11-04T10:39:31.794Z,10.30
2018-11-04T10:44:34.274Z,10.35
2018-11-04T10:49:37.298Z,10.35
2018-11-04T10:54:39.934Z,10.34
2018-11-04T10:59:42.549Z,10.36
2018-11-04T11:04:45.153Z,10.37
2018-11-04T11:09:49.663Z,10.45
2018-11-04T11:14:52.242Z,10.52
2018-11-04T11:19:54.754Z,10.59
2018-11-04T11:24:57.397Z,10.71
2018-11-04T11:30:00.066Z,10.72
2018-11-04T11:35:02.775Z,10.72
2018-11-04T11:40:06.108Z,10.76
2018-11-04T11:45:09.466Z,10.76
2018-11-04T11:50:11.831Z,10.90
2018-11-04T11:55:14.548Z,10.84
2018-11-04T12:00:16.947Z,11.02
2018-11-04T12:05:19.820Z,10.98
2018-11-04T12:10:22.450Z,11.03
2018-11-04T12:15:24.873Z,10.99
2018-11-04T12:20:27.432Z,10.78
2018-11-04T12:25:29.878Z,10.96
2018-11-04T12:30:32.443Z,11.13
2018-11-04T12:35:34.963Z,11.10
2018-11-04T12:40:37.521Z,11.14
2018-11-04T12:45:40.057Z,11.04
2018-11-04T12:50:42.535Z,10.82
2018-11-04T12:55:45.173Z,11.14
2018-11-04T13:00:47.598Z,11.06
2018-11-04T13:05:50.292Z,10.94
2018-11-04T13:10:52.815Z,10.83
2018-11-04T13:15:55.412Z,10.97
2018-11-04T13:20:58.312Z,10.88
2018-11-04T13:26:00.749Z,11.01
2018-11-04T13:31:03.446Z,11.07
2018-11-04T13:36:06.318Z,11.03
2018-11-04T13:41:08.725Z,11.05
2018-11-04T13:46:11.339Z,11.16
2018-11-04T13:51:14.366Z,11.19
2018-11-04T13:56:20.185Z,11.23
2018-11-04T14:01:22.627Z,11.24
2018-11-04T14:06:25.015Z,11.12
2018-11-04T14:11:27.475Z,11.13
2018-11-04T14:16:29.968Z,10.92
2018-11-04T14:21:32.372Z,10.81
2018-11-04T14:26:34.783Z,11.03
2018-11-04T14:31:37.581Z,11.02
2018-11-04T14:36:40.481Z,11.19
2018-11-04T14:41:42.807Z,11.18
2018-11-04T14:46:45.672Z,11.18
2018-11-04T14:51:48.126Z,11.08
2018-11-04T14:56:50.572Z,10.95
2018-11-04T15:01:52.992Z,10.75
2018-11-04T15:06:55.550Z,11.00
2018-11-04T15:11:57.984Z,10.98
2018-11-04T15:17:00.446Z,10.88
2018-11-04T15:22:02.929Z,10.95
2018-11-04T15:27:05.960Z,11.03
2018-11-04T15:32:08.441Z,10.99
2018-11-04T15:37:11.038Z,11.16
2018-11-04T15:42:13.408Z,11.09
2018-11-04T15:47:15.795Z,10.91
2018-11-04T15:52:18.180Z,10.87
2018-11-04T15:57:20.768Z,11.01
2018-11-04T16:02:23.116Z,10.93
2018-11-04T16:07:25.707Z,10.92
2018-11-04T16:12:28.081Z,10.89
2018-11-04T16:17:30.484Z,10.93
2018-11-04T16:22:32.911Z,10.85
2018-11-04T16:27:35.259Z,10.90
2018-11-04T16:32:37.972Z,10.89
2018-11-04T16:37:41.235Z,10.91
2018-11-04T16:42:43.538Z,11.01
2018-11-04T16:47:45.960Z,10.97
2018-11-04T16:52:48.363Z,10.96
2018-11-04T16:57:50.757Z,10.94
2018-11-04T17:02:53.219Z,11.00
2018-11-04T17:07:55.776Z,11.02
2018-11-04T17:12:59.126Z,10.88
2018-11-04T17:18:01.601Z,11.01
2018-11-04T17:23:04.157Z,11.02
2018-11-04T17:28:06.528Z,10.95
2018-11-04T17:33:09.001Z,10.91
2018-11-04T17:38:11.374Z,10.91
2018-11-04T17:43:13.943Z,10.85
2018-11-04T17:48:23.086Z,10.88
2018-11-04T17:53:25.517Z,10.88
2018-11-04T17:58:27.894Z,10.88
2018-11-04T18:03:30.357Z,10.88
2018-11-04T18:08:32.799Z,10.95
2018-11-04T18:13:35.285Z,10.96
2018-11-04T18:18:37.732Z,10.97
2018-11-04T18:23:40.155Z,11.03
2018-11-04T18:28:42.506Z,10.98
2018-11-04T18:33:44.927Z,10.92
2018-11-04T18:38:47.432Z,11.00
2018-11-04T18:43:49.934Z,10.93
2018-11-04T18:48:52.681Z,10.86
2018-11-04T18:53:55.864Z,10.91
2018-11-04T18:58:58.301Z,10.86
2018-11-04T19:04:00.699Z,10.84
2018-11-04T19:09:04.816Z,10.85
2018-11-04T19:14:07.629Z,10.83
2018-11-04T19:19:10.224Z,10.85
2018-11-04T19:24:12.988Z,10.88
2018-11-04T19:29:15.392Z,10.80
2018-11-04T19:34:18.423Z,10.76
2018-11-04T19:39:20.970Z,10.83
2018-11-04T19:44:23.563Z,10.84
2018-11-04T19:49:26.120Z,10.79
2018-11-04T19:54:28.617Z,10.81
2018-11-04T19:59:31.223Z,10.80
2018-11-04T20:04:33.911Z,10.75
2018-11-04T20:09:36.379Z,10.78
2018-11-04T20:14:39.039Z,10.77
2018-11-04T20:19:46.985Z,10.74
2018-11-04T20:24:55.078Z,10.77
2018-11-04T20:29:57.533Z,10.75
2018-11-04T20:34:59.998Z,10.76
2018-11-04T20:40:08.279Z,10.74
2018-11-04T20:45:11.191Z,10.70
2018-11-04T20:50:19.344Z,10.73
2018-11-04T20:55:21.724Z,10.70
2018-11-04T21:00:24.197Z,10.71
2018-11-04T21:05:26.578Z,10.72
2018-11-04T21:10:29.001Z,10.69
2018-11-04T21:15:31.402Z,10.72
2018-11-04T21:20:33.793Z,10.69
2018-11-04T21:25:36.376Z,10.71
2018-11-04T21:30:38.695Z,10.71
2018-11-04T21:36:45.550Z,10.71
2018-11-04T21:41:47.948Z,10.75
2018-11-04T21:46:50.319Z,10.71
2018-11-04T21:51:52.723Z,10.68
2018-11-04T21:56:55.085Z,10.73
2018-11-04T22:01:57.533Z,10.71
2018-11-04T22:06:59.975Z,10.70
2018-11-04T22:12:02.590Z,10.72
2018-11-04T22:17:05.244Z,10.75
2018-11-04T22:22:07.608Z,10.72
2018-11-04T22:27:10.027Z,10.77
2018-11-04T22:32:12.405Z,10.73
2018-11-04T22:37:14.820Z,10.77
2018-11-04T22:42:17.273Z,10.73
2018-11-04T22:47:20.367Z,10.71
2018-11-04T22:52:22.817Z,10.75
2018-11-04T22:57:25.169Z,10.87
2018-11-04T23:02:27.552Z,10.75
2018-11-04T23:07:30.047Z,10.74
2018-11-04T23:12:32.526Z,10.77
2018-11-04T23:17:34.961Z,10.76
2018-11-04T23:22:37.554Z,10.75
2018-11-04T23:27:41.328Z,10.76
2018-11-04T23:32:45.469Z,10.76
2018-11-04T23:37:48.048Z,10.73
2018-11-04T23:42:50.519Z,10.73
2018-11-04T23:47:53.021Z,10.81
2018-11-04T23:52:55.409Z,10.89
2018-11-04T23:57:57.797Z,10.80
